createdAt,value
2022-08-30T00:00:09.189Z,27.43
2022-08-30T00:04:09.410Z,26.66
2022-08-30T00:08:12.227Z,26.51
2022-08-30T00:12:14.097Z,26.62
2022-08-30T00:16:15.287Z,26.38
2022-08-30T00:20:19.258Z,26.26
2022-08-30T00:24:21.694Z,26.50
2022-08-30T00:28:21.699Z,25.89
2022-08-30T00:32:22.005Z,26.08
2022-08-30T00:36:22.234Z,25.92
2022-08-30T00:40:27.406Z,25.75
2022-08-30T00:44:27.620Z,25.87
2022-08-30T00:48:28.180Z,25.82
2022-08-30T00:52:28.394Z,25.75
2022-08-30T00:56:32.312Z,25.80
2022-08-30T01:00:33.488Z,25.90
2022-08-30T01:04:34.538Z,25.76
2022-08-30T01:08:34.756Z,25.60
2022-08-30T01:12:37.160Z,25.37
2022-08-30T01:16:38.303Z,25.31
2022-08-30T01:20:45.425Z,25.86
2022-08-30T01:24:47.992Z,26.07
2022-08-30T01:28:50.575Z,26.13
2022-08-30T01:32:51.356Z,26.12
2022-08-30T01:36:51.816Z,26.12
2022-08-30T01:40:59.877Z,25.98
2022-08-30T01:45:00.427Z,25.96
2022-08-30T01:49:01.368Z,25.80
2022-08-30T01:53:00.965Z,25.78
2022-08-30T01:57:03.346Z,25.66
2022-08-30T02:01:03.546Z,25.55
2022-08-30T02:05:03.816Z,25.48
2022-08-30T02:09:05.273Z,25.45
2022-08-30T02:13:06.859Z,25.44
2022-08-30T02:17:08.019Z,25.42
2022-08-30T02:21:09.075Z,25.40
2022-08-30T02:25:20.455Z,25.53
2022-08-30T02:29:26.136Z,25.53
2022-08-30T02:33:27.485Z,25.48
2022-08-30T02:37:27.818Z,25.51
2022-08-30T02:41:30.891Z,25.52
2022-08-30T02:45:36.708Z,25.52
2022-08-30T02:49:37.390Z,25.52
2022-08-30T02:53:38.849Z,25.49
2022-08-30T02:57:40.005Z,25.58
2022-08-30T03:01:42.448Z,25.57
2022-08-30T03:05:46.005Z,25.50
2022-08-30T03:09:47.063Z,25.38
2022-08-30T03:13:47.513Z,25.30
2022-08-30T03:17:50.324Z,25.42
2022-08-30T03:22:01.072Z,25.42
2022-08-30T03:26:01.647Z,25.30
2022-08-30T03:30:01.573Z,25.34
2022-08-30T03:34:10.860Z,25.09
2022-08-30T03:38:10.707Z,24.88
2022-08-30T03:42:11.392Z,25.11
2022-08-30T03:46:20.287Z,25.09
2022-08-30T03:50:33.623Z,25.11
2022-08-30T03:55:01.595Z,25.04
2022-08-30T03:59:02.667Z,24.99
2022-08-30T04:03:03.137Z,24.96
2022-08-30T04:07:07.327Z,25.02
2022-08-30T04:11:08.365Z,25.15
2022-08-30T04:15:11.019Z,25.30
2022-08-30T04:19:11.916Z,25.49
2022-08-30T04:23:27.824Z,25.69
2022-08-30T04:27:54.363Z,25.94
2022-08-30T04:32:23.170Z,26.23
2022-08-30T04:36:52.585Z,26.62
2022-08-30T04:41:13.705Z,26.98
2022-08-30T04:45:16.986Z,27.20
2022-08-30T04:49:17.385Z,27.30
2022-08-30T04:53:18.275Z,27.52
2022-08-30T04:57:20.920Z,27.83
2022-08-30T05:01:23.813Z,28.29
2022-08-30T05:05:42.441Z,28.72
2022-08-30T05:09:43.275Z,29.09
2022-08-30T05:13:46.947Z,29.14
2022-08-30T05:17:47.860Z,29.08
2022-08-30T05:21:50.458Z,28.84
2022-08-30T05:25:51.194Z,28.88
2022-08-30T05:29:53.623Z,28.14
2022-08-30T05:33:56.727Z,26.95
2022-08-30T05:37:59.363Z,26.73
2022-08-30T05:42:00.433Z,26.41
2022-08-30T05:46:08.257Z,26.13
2022-08-30T05:50:15.484Z,25.94
2022-08-30T05:54:18.936Z,26.16
2022-08-30T05:58:19.372Z,26.27
2022-08-30T06:02:23.422Z,25.91
2022-08-30T06:06:29.039Z,25.76
2022-08-30T06:10:29.947Z,25.63
2022-08-30T06:14:33.407Z,26.10
2022-08-30T06:18:41.425Z,26.39
2022-08-30T06:22:42.739Z,26.51
2022-08-30T06:26:53.282Z,26.39
2022-08-30T06:30:54.108Z,26.93
2022-08-30T06:34:58.332Z,27.56
2022-08-30T06:39:01.456Z,28.45
2022-08-30T06:43:05.967Z,29.25
2022-08-30T06:47:06.234Z,29.68
2022-08-30T06:51:10.318Z,30.18
2022-08-30T06:55:15.060Z,30.34
2022-08-30T06:59:15.882Z,30.55
2022-08-30T07:03:24.229Z,30.73
2022-08-30T07:07:30.604Z,31.05
2022-08-30T07:11:42.864Z,31.08
2022-08-30T07:15:47.902Z,31.21
2022-08-30T07:19:48.506Z,31.48
2022-08-30T07:23:56.576Z,31.70
2022-08-30T07:27:57.886Z,31.77
2022-08-30T07:32:00.005Z,31.70
2022-08-30T07:36:01.802Z,31.79
2022-08-30T07:40:10.640Z,31.96
2022-08-30T07:44:23.135Z,32.05
2022-08-30T07:48:32.364Z,31.98
2022-08-30T07:52:34.894Z,32.03
2022-08-30T07:56:39.881Z,32.06
2022-08-30T08:00:41.149Z,32.20
2022-08-30T08:04:43.588Z,32.37
2022-08-30T08:08:47.652Z,32.29
2022-08-30T08:12:56.078Z,32.32
2022-08-30T08:16:59.180Z,32.41
2022-08-30T08:20:59.679Z,32.71
2022-08-30T08:24:59.951Z,32.96
2022-08-30T08:29:04.687Z,33.21
2022-08-30T08:33:04.420Z,33.60
2022-08-30T08:37:05.183Z,33.71
2022-08-30T08:41:10.246Z,33.53
2022-08-30T08:45:19.971Z,33.38
2022-08-30T08:49:37.807Z,33.21
2022-08-30T08:53:47.185Z,33.12
2022-08-30T08:58:01.309Z,33.53
2022-08-30T09:02:16.928Z,33.41
2022-08-30T09:07:04.731Z,33.53
2022-08-30T09:11:16.456Z,33.57
2022-08-30T09:15:27.487Z,33.59
2022-08-30T09:19:42.954Z,33.57
2022-08-30T09:23:52.071Z,33.50
2022-08-30T09:27:56.194Z,33.45
2022-08-30T09:32:25.150Z,33.51
2022-08-30T09:36:31.375Z,33.54
2022-08-30T09:40:38.631Z,33.47
2022-08-30T09:44:43.421Z,33.65
2022-08-30T09:50:09.779Z,33.70
2022-08-30T09:55:23.656Z,33.67
2022-08-30T10:00:58.550Z,33.40
2022-08-30T10:06:31.417Z,33.51
2022-08-30T10:10:53.942Z,33.73
2022-08-30T10:15:21.626Z,33.78
2022-08-30T10:19:45.715Z,33.59
2022-08-30T10:24:21.025Z,33.58
2022-08-30T10:28:35.867Z,33.66
2022-08-30T10:33:02.701Z,34.01
2022-08-30T10:37:29.666Z,34.24
2022-08-30T10:41:50.675Z,34.26
2022-08-30T10:46:25.011Z,34.48
2022-08-30T10:50:41.026Z,34.57
2022-08-30T10:59:37.277Z,34.72
2022-08-30T11:04:24.515Z,34.93
2022-08-30T11:24:29.520Z,35.63
2022-08-30T11:35:20.548Z,35.44
2022-08-30T11:41:12.114Z,35.57
2022-08-30T11:52:58.133Z,35.71
2022-08-30T11:58:29.811Z,35.85
2022-08-30T12:03:41.404Z,36.05
2022-08-30T12:14:41.918Z,36.33
2022-08-30T12:20:18.991Z,36.55
2022-08-30T12:25:19.297Z,36.62
2022-08-30T12:31:30.038Z,36.54
2022-08-30T12:36:17.501Z,36.36
2022-08-30T12:41:22.522Z,36.45
2022-08-30T12:45:39.823Z,36.33
2022-08-30T12:49:46.243Z,36.24
2022-08-30T12:54:23.136Z,36.03
2022-08-30T12:58:51.631Z,35.93
2022-08-30T13:03:02.725Z,36.15
2022-08-30T13:07:32.909Z,35.74
2022-08-30T13:16:30.532Z,36.10
2022-08-30T13:20:36.944Z,36.34
2022-08-30T13:24:37.900Z,36.26
2022-08-30T13:28:56.932Z,36.23
2022-08-30T13:32:56.955Z,36.13
2022-08-30T13:36:58.910Z,36.44
2022-08-30T13:40:59.303Z,36.60
2022-08-30T13:45:02.221Z,36.87
2022-08-30T13:49:06.515Z,36.86
2022-08-30T13:53:06.237Z,37.27
2022-08-30T13:57:07.989Z,37.63
2022-08-30T14:01:10.213Z,37.89
2022-08-30T14:05:30.852Z,37.49
2022-08-30T14:09:31.614Z,37.34
2022-08-30T14:13:31.722Z,37.21
2022-08-30T14:17:35.404Z,37.00
2022-08-30T14:21:37.261Z,36.87
2022-08-30T14:25:52.797Z,36.69
2022-08-30T14:29:54.221Z,35.92
2022-08-30T14:33:59.160Z,35.72
2022-08-30T14:37:59.604Z,36.18
2022-08-30T14:42:04.161Z,36.45
2022-08-30T14:46:07.467Z,36.71
2022-08-30T14:50:11.056Z,36.79
2022-08-30T14:54:12.003Z,36.96
2022-08-30T14:58:16.783Z,37.16
2022-08-30T15:02:17.170Z,36.89
2022-08-30T15:06:18.986Z,36.95
2022-08-30T15:10:21.060Z,37.00
2022-08-30T15:14:23.510Z,37.17
2022-08-30T15:18:24.049Z,37.23
2022-08-30T15:22:26.532Z,37.14
2022-08-30T15:26:27.449Z,37.17
2022-08-30T15:30:27.821Z,37.46
2022-08-30T15:34:28.647Z,37.71
2022-08-30T15:38:31.667Z,37.96
2022-08-30T15:42:33.475Z,38.11
2022-08-30T15:46:35.983Z,38.35
2022-08-30T15:50:41.378Z,38.39
2022-08-30T15:54:48.298Z,38.37
2022-08-30T15:58:50.065Z,38.39
2022-08-30T16:02:53.549Z,38.30
2022-08-30T16:06:53.869Z,38.35
2022-08-30T16:10:56.173Z,38.33
2022-08-30T16:14:58.478Z,38.20
2022-08-30T16:18:59.064Z,38.25
2022-08-30T16:22:59.002Z,38.05
2022-08-30T16:27:03.802Z,37.81
2022-08-30T16:31:08.744Z,37.59
2022-08-30T16:35:14.325Z,37.32
2022-08-30T16:39:14.803Z,37.28
2022-08-30T16:43:17.081Z,36.96
2022-08-30T16:47:18.072Z,36.52
2022-08-30T16:51:20.502Z,36.52
2022-08-30T16:55:20.056Z,36.43
2022-08-30T16:59:24.380Z,36.27
2022-08-30T17:03:24.165Z,36.03
2022-08-30T17:07:24.190Z,35.95
2022-08-30T17:11:23.501Z,35.71
2022-08-30T17:15:26.732Z,35.83
2022-08-30T17:19:28.988Z,35.72
2022-08-30T17:23:30.004Z,35.70
2022-08-30T17:27:32.332Z,35.70
2022-08-30T17:31:35.060Z,35.72
2022-08-30T17:35:34.831Z,35.63
2022-08-30T17:39:35.125Z,35.63
2022-08-30T17:43:38.533Z,35.70
2022-08-30T17:47:41.590Z,35.71
2022-08-30T17:51:42.563Z,35.31
2022-08-30T17:55:42.564Z,34.79
2022-08-30T17:59:42.970Z,34.23
2022-08-30T18:03:46.509Z,33.87
2022-08-30T18:07:46.640Z,33.64
2022-08-30T18:11:48.204Z,33.26
2022-08-30T18:15:50.740Z,32.79
2022-08-30T18:19:56.243Z,32.84
2022-08-30T18:24:00.771Z,32.46
2022-08-30T18:28:27.831Z,32.31
2022-08-30T18:32:36.200Z,32.38
2022-08-30T18:36:46.840Z,32.15
2022-08-30T18:40:49.890Z,31.93
2022-08-30T18:45:14.672Z,31.58
2022-08-30T18:49:32.479Z,31.11
2022-08-30T18:53:40.097Z,31.00
2022-08-30T18:58:06.131Z,30.87
2022-08-30T19:02:14.681Z,30.81
2022-08-30T19:06:14.886Z,30.71
2022-08-30T19:10:21.135Z,30.69
2022-08-30T19:14:20.853Z,30.57
2022-08-30T19:18:21.386Z,30.60
2022-08-30T19:26:46.543Z,30.68
2022-08-30T19:30:46.592Z,30.63
2022-08-30T19:34:46.935Z,30.64
2022-08-30T19:38:46.894Z,30.56
2022-08-30T19:42:50.460Z,30.36
2022-08-30T19:46:53.566Z,30.32
2022-08-30T19:50:55.460Z,30.23
2022-08-30T19:54:58.802Z,30.19
2022-08-30T19:59:01.197Z,29.98
2022-08-30T20:03:02.288Z,29.77
2022-08-30T20:07:02.989Z,29.85
2022-08-30T20:11:03.408Z,29.67
2022-08-30T20:15:12.198Z,29.17
2022-08-30T20:19:14.582Z,29.33
2022-08-30T20:23:14.707Z,29.13
2022-08-30T20:24:33.249Z,30.53
2022-08-30T20:27:19.551Z,29.16
2022-08-30T20:31:22.217Z,29.12
2022-08-30T20:35:23.609Z,29.16
2022-08-30T20:39:24.626Z,29.05
2022-08-30T20:43:27.588Z,28.79
2022-08-30T20:47:30.128Z,28.68
2022-08-30T20:51:30.579Z,28.68
2022-08-30T20:55:33.569Z,28.67
2022-08-30T20:59:34.732Z,28.25
2022-08-30T21:03:37.629Z,28.06
2022-08-30T21:07:40.421Z,27.86
2022-08-30T21:11:44.349Z,27.90
2022-08-30T21:15:46.090Z,27.75
2022-08-30T21:19:48.995Z,27.67
2022-08-30T21:23:50.853Z,27.75
2022-08-30T21:27:53.146Z,27.69
2022-08-30T21:31:53.685Z,27.51
2022-08-30T21:36:12.147Z,27.61
2022-08-30T21:40:14.961Z,27.71
2022-08-30T21:44:17.717Z,27.54
2022-08-30T21:48:18.027Z,27.54
2022-08-30T21:52:20.663Z,27.31
2022-08-30T21:56:23.243Z,27.24
2022-08-30T22:00:23.982Z,27.04
2022-08-30T22:04:26.879Z,26.91
2022-08-30T22:08:28.857Z,26.92
2022-08-30T22:12:29.194Z,26.89
2022-08-30T22:16:30.422Z,26.94
2022-08-30T22:20:30.866Z,26.90
2022-08-30T22:24:34.088Z,27.00
2022-08-30T22:28:34.229Z,26.72
2022-08-30T22:32:34.447Z,26.63
2022-08-30T22:36:37.246Z,26.62
2022-08-30T22:40:45.522Z,26.55
2022-08-30T22:44:50.243Z,26.25
2022-08-30T22:48:52.687Z,26.35
2022-08-30T22:52:52.202Z,26.34
2022-08-30T22:56:54.698Z,26.43
2022-08-30T23:00:56.141Z,26.41
2022-08-30T23:04:56.592Z,26.31
2022-08-30T23:08:56.944Z,26.21
2022-08-30T23:13:00.746Z,26.11
2022-08-30T23:17:01.215Z,26.00
2022-08-30T23:21:06.027Z,25.97
2022-08-30T23:25:32.087Z,25.94
2022-08-30T23:30:00.866Z,25.80
2022-08-30T23:34:17.412Z,25.64
2022-08-30T23:38:34.277Z,25.59
2022-08-30T23:42:49.899Z,25.51
2022-08-30T23:47:08.557Z,25.29
2022-08-30T23:51:25.486Z,25.21
2022-08-30T23:55:42.503Z,25.15
2022-08-30T23:59:59.131Z,25.09
